sensor_id;sensor_type;location;lat;lon;timestamp;pressure;altitude;pressure_sealevel;temperature
71649;BMP180;59492;45.638;11.714;2023-03-04T00:01:59;101288.20;;;18.60
71649;BMP180;59492;45.638;11.714;2023-03-04T00:04:25;101293.40;;;18.60
71649;BMP180;59492;45.638;11.714;2023-03-04T00:06:50;101292.80;;;18.56
71649;BMP180;59492;45.638;11.714;2023-03-04T00:09:16;101293.80;;;18.56
71649;BMP180;59492;45.638;11.714;2023-03-04T00:11:42;101292.60;;;18.50
71649;BMP180;59492;45.638;11.714;2023-03-04T00:14:07;101295.80;;;18.50
71649;BMP180;59492;45.638;11.714;2023-03-04T00:16:33;101296.40;;;18.50
71649;BMP180;59492;45.638;11.714;2023-03-04T00:18:58;101297.60;;;18.50
71649;BMP180;59492;45.638;11.714;2023-03-04T00:21:24;101298.40;;;18.56
71649;BMP180;59492;45.638;11.714;2023-03-04T00:23:50;101299.00;;;18.50
71649;BMP180;59492;45.638;11.714;2023-03-04T00:26:17;101301.60;;;18.50
71649;BMP180;59492;45.638;11.714;2023-03-04T00:28:43;101302.00;;;18.50
71649;BMP180;59492;45.638;11.714;2023-03-04T00:31:09;101305.20;;;18.50
71649;BMP180;59492;45.638;11.714;2023-03-04T00:33:36;101307.40;;;18.48
71649;BMP180;59492;45.638;11.714;2023-03-04T00:36:02;101306.40;;;18.44
71649;BMP180;59492;45.638;11.714;2023-03-04T00:38:28;101307.20;;;18.42
71649;BMP180;59492;45.638;11.714;2023-03-04T00:40:54;101305.20;;;18.40
71649;BMP180;59492;45.638;11.714;2023-03-04T00:43:23;101307.60;;;18.40
71649;BMP180;59492;45.638;11.714;2023-03-04T00:45:48;101306.40;;;18.40
71649;BMP180;59492;45.638;11.714;2023-03-04T00:48:14;101305.40;;;18.40
71649;BMP180;59492;45.638;11.714;2023-03-04T00:50:41;101301.80;;;18.40
71649;BMP180;59492;45.638;11.714;2023-03-04T00:53:07;101298.40;;;18.38
71649;BMP180;59492;45.638;11.714;2023-03-04T00:55:32;101298.60;;;18.34
71649;BMP180;59492;45.638;11.714;2023-03-04T00:57:58;101297.60;;;18.36
71649;BMP180;59492;45.638;11.714;2023-03-04T01:00:24;101294.80;;;18.30
71649;BMP180;59492;45.638;11.714;2023-03-04T01:02:49;101295.20;;;18.30
71649;BMP180;59492;45.638;11.714;2023-03-04T01:05:15;101292.20;;;18.30
71649;BMP180;59492;45.638;11.714;2023-03-04T01:07:41;101287.80;;;18.36
71649;BMP180;59492;45.638;11.714;2023-03-04T01:10:08;101286.20;;;18.40
71649;BMP180;59492;45.638;11.714;2023-03-04T01:12:34;101283.20;;;18.40
71649;BMP180;59492;45.638;11.714;2023-03-04T01:15:00;101281.20;;;18.40
71649;BMP180;59492;45.638;11.714;2023-03-04T01:17:25;101277.60;;;18.36
71649;BMP180;59492;45.638;11.714;2023-03-04T01:19:51;101276.40;;;18.30
71649;BMP180;59492;45.638;11.714;2023-03-04T01:22:17;101272.60;;;18.30
71649;BMP180;59492;45.638;11.714;2023-03-04T01:24:44;101268.20;;;18.30
71649;BMP180;59492;45.638;11.714;2023-03-04T01:27:10;101268.80;;;18.30
71649;BMP180;59492;45.638;11.714;2023-03-04T01:29:36;101267.40;;;18.30
71649;BMP180;59492;45.638;11.714;2023-03-04T01:32:01;101266.60;;;18.28
71649;BMP180;59492;45.638;11.714;2023-03-04T01:34:27;101261.20;;;18.28
71649;BMP180;59492;45.638;11.714;2023-03-04T01:36:53;101260.40;;;18.26
71649;BMP180;59492;45.638;11.714;2023-03-04T01:39:18;101259.60;;;18.20
71649;BMP180;59492;45.638;11.714;2023-03-04T01:41:44;101258.20;;;18.20
71649;BMP180;59492;45.638;11.714;2023-03-04T01:44:11;101255.00;;;18.20
71649;BMP180;59492;45.638;11.714;2023-03-04T01:46:37;101253.00;;;18.20
71649;BMP180;59492;45.638;11.714;2023-03-04T01:49:08;101247.80;;;18.20
71649;BMP180;59492;45.638;11.714;2023-03-04T01:51:34;101244.60;;;18.20
71649;BMP180;59492;45.638;11.714;2023-03-04T01:54:00;101242.20;;;18.20
71649;BMP180;59492;45.638;11.714;2023-03-04T01:56:34;101238.20;;;18.18
71649;BMP180;59492;45.638;11.714;2023-03-04T01:59:09;101233.80;;;18.14
71649;BMP180;59492;45.638;11.714;2023-03-04T02:01:44;101233.80;;;18.20
71649;BMP180;59492;45.638;11.714;2023-03-04T02:04:11;101228.00;;;18.20
71649;BMP180;59492;45.638;11.714;2023-03-04T02:06:40;101229.80;;;18.20
71649;BMP180;59492;45.638;11.714;2023-03-04T02:09:07;101230.00;;;18.20
71649;BMP180;59492;45.638;11.714;2023-03-04T02:11:36;101229.20;;;18.20
71649;BMP180;59492;45.638;11.714;2023-03-04T02:14:05;101222.20;;;18.16
71649;BMP180;59492;45.638;11.714;2023-03-04T02:16:32;101216.00;;;18.16
71649;BMP180;59492;45.638;11.714;2023-03-04T02:18:59;101214.00;;;18.10
71649;BMP180;59492;45.638;11.714;2023-03-04T02:26:47;101210.60;;;18.10
71649;BMP180;59492;45.638;11.714;2023-03-04T02:29:16;101210.40;;;18.10
71649;BMP180;59492;45.638;11.714;2023-03-04T02:31:47;101208.60;;;18.10
71649;BMP180;59492;45.638;11.714;2023-03-04T02:34:21;101204.60;;;18.10
71649;BMP180;59492;45.638;11.714;2023-03-04T02:36:49;101202.80;;;18.10
71649;BMP180;59492;45.638;11.714;2023-03-04T02:39:38;101200.60;;;18.10
71649;BMP180;59492;45.638;11.714;2023-03-04T02:42:10;101201.00;;;18.04
71649;BMP180;59492;45.638;11.714;2023-03-04T02:44:39;101202.60;;;18.10
71649;BMP180;59492;45.638;11.714;2023-03-04T02:47:09;101202.40;;;18.10
71649;BMP180;59492;45.638;11.714;2023-03-04T02:49:37;101203.20;;;18.10
71649;BMP180;59492;45.638;11.714;2023-03-04T02:52:04;101193.00;;;18.10
71649;BMP180;59492;45.638;11.714;2023-03-04T02:54:30;101192.00;;;18.10
71649;BMP180;59492;45.638;11.714;2023-03-04T02:56:58;101193.80;;;18.10
71649;BMP180;59492;45.638;11.714;2023-03-04T02:59:30;101193.60;;;18.10
71649;BMP180;59492;45.638;11.714;2023-03-04T03:01:56;101194.40;;;18.10
71649;BMP180;59492;45.638;11.714;2023-03-04T03:04:22;101194.40;;;18.10
71649;BMP180;59492;45.638;11.714;2023-03-04T03:06:49;101192.40;;;18.10
71649;BMP180;59492;45.638;11.714;2023-03-04T03:09:14;101193.80;;;18.08
71649;BMP180;59492;45.638;11.714;2023-03-04T03:11:40;101189.00;;;18.06
71649;BMP180;59492;45.638;11.714;2023-03-04T03:14:05;101190.20;;;18.06
71649;BMP180;59492;45.638;11.714;2023-03-04T03:16:31;101186.00;;;18.00
71649;BMP180;59492;45.638;11.714;2023-03-04T03:18:57;101185.00;;;18.00
71649;BMP180;59492;45.638;11.714;2023-03-04T03:21:23;101189.20;;;18.00
71649;BMP180;59492;45.638;11.714;2023-03-04T03:23:49;101187.00;;;18.00
71649;BMP180;59492;45.638;11.714;2023-03-04T03:26:16;101183.00;;;18.00
71649;BMP180;59492;45.638;11.714;2023-03-04T03:28:42;101182.60;;;18.00
71649;BMP180;59492;45.638;11.714;2023-03-04T03:31:08;101186.00;;;17.98
71649;BMP180;59492;45.638;11.714;2023-03-04T03:33:34;101183.00;;;17.94
71649;BMP180;59492;45.638;11.714;2023-03-04T03:36:00;101184.20;;;18.00
71649;BMP180;59492;45.638;11.714;2023-03-04T03:38:26;101180.00;;;18.00
71649;BMP180;59492;45.638;11.714;2023-03-04T03:40:52;101178.40;;;18.00
71649;BMP180;59492;45.638;11.714;2023-03-04T03:43:17;101182.20;;;18.00
71649;BMP180;59492;45.638;11.714;2023-03-04T03:45:43;101182.60;;;17.96
71649;BMP180;59492;45.638;11.714;2023-03-04T03:48:09;101182.00;;;17.94
71649;BMP180;59492;45.638;11.714;2023-03-04T03:50:35;101181.00;;;17.92
71649;BMP180;59492;45.638;11.714;2023-03-04T03:53:01;101181.00;;;17.90
71649;BMP180;59492;45.638;11.714;2023-03-04T03:55:27;101178.60;;;17.90
71649;BMP180;59492;45.638;11.714;2023-03-04T03:57:53;101181.60;;;17.90
71649;BMP180;59492;45.638;11.714;2023-03-04T04:00:19;101182.80;;;17.90
71649;BMP180;59492;45.638;11.714;2023-03-04T04:02:45;101180.20;;;17.90
71649;BMP180;59492;45.638;11.714;2023-03-04T04:05:11;101178.20;;;17.88
71649;BMP180;59492;45.638;11.714;2023-03-04T04:07:39;101178.80;;;17.82
71649;BMP180;59492;45.638;11.714;2023-03-04T04:10:06;101179.20;;;17.84
71649;BMP180;59492;45.638;11.714;2023-03-04T04:12:33;101176.00;;;17.80
71649;BMP180;59492;45.638;11.714;2023-03-04T04:14:58;101171.40;;;17.80
71649;BMP180;59492;45.638;11.714;2023-03-04T04:17:24;101172.40;;;17.80
71649;BMP180;59492;45.638;11.714;2023-03-04T04:19:50;101170.40;;;17.80
71649;BMP180;59492;45.638;11.714;2023-03-04T04:22:18;101172.40;;;17.80
71649;BMP180;59492;45.638;11.714;2023-03-04T04:24:47;101175.20;;;17.80
71649;BMP180;59492;45.638;11.714;2023-03-04T04:27:13;101174.20;;;17.90
71649;BMP180;59492;45.638;11.714;2023-03-04T04:29:39;101181.00;;;17.90
71649;BMP180;59492;45.638;11.714;2023-03-04T04:32:06;101176.40;;;17.90
71649;BMP180;59492;45.638;11.714;2023-03-04T04:34:33;101174.60;;;17.84
71649;BMP180;59492;45.638;11.714;2023-03-04T04:36:58;101177.80;;;17.82
71649;BMP180;59492;45.638;11.714;2023-03-04T04:39:24;101178.80;;;17.80
71649;BMP180;59492;45.638;11.714;2023-03-04T04:41:50;101179.40;;;17.80
71649;BMP180;59492;45.638;11.714;2023-03-04T04:44:15;101179.80;;;17.80
71649;BMP180;59492;45.638;11.714;2023-03-04T04:46:41;101176.00;;;17.80
71649;BMP180;59492;45.638;11.714;2023-03-04T04:49:08;101181.00;;;17.80
71649;BMP180;59492;45.638;11.714;2023-03-04T04:51:34;101177.20;;;17.80
71649;BMP180;59492;45.638;11.714;2023-03-04T04:54:02;101179.80;;;17.74
71649;BMP180;59492;45.638;11.714;2023-03-04T04:56:28;101179.20;;;17.74
71649;BMP180;59492;45.638;11.714;2023-03-04T04:58:57;101182.60;;;17.70
71649;BMP180;59492;45.638;11.714;2023-03-04T05:01:23;101179.00;;;17.70
71649;BMP180;59492;45.638;11.714;2023-03-04T05:03:49;101180.40;;;17.70
71649;BMP180;59492;45.638;11.714;2023-03-04T05:06:18;101181.80;;;17.70
71649;BMP180;59492;45.638;11.714;2023-03-04T05:08:48;101180.60;;;17.70
71649;BMP180;59492;45.638;11.714;2023-03-04T05:11:14;101178.20;;;17.70
71649;BMP180;59492;45.638;11.714;2023-03-04T05:13:40;101176.40;;;17.70
71649;BMP180;59492;45.638;11.714;2023-03-04T05:16:06;101176.60;;;17.70
71649;BMP180;59492;45.638;11.714;2023-03-04T05:18:32;101177.80;;;17.68
71649;BMP180;59492;45.638;11.714;2023-03-04T05:21:00;101179.20;;;17.66
71649;BMP180;59492;45.638;11.714;2023-03-04T05:23:31;101177.00;;;17.70
71649;BMP180;59492;45.638;11.714;2023-03-04T05:25:58;101180.00;;;17.70
71649;BMP180;59492;45.638;11.714;2023-03-04T05:28:24;101179.00;;;17.72
71649;BMP180;59492;45.638;11.714;2023-03-04T05:30:50;101180.00;;;17.72
71649;BMP180;59492;45.638;11.714;2023-03-04T05:33:21;101176.00;;;17.70
71649;BMP180;59492;45.638;11.714;2023-03-04T05:35:48;101176.40;;;17.70
71649;BMP180;59492;45.638;11.714;2023-03-04T05:38:16;101175.60;;;17.70
71649;BMP180;59492;45.638;11.714;2023-03-04T05:40:42;101174.40;;;17.70
71649;BMP180;59492;45.638;11.714;2023-03-04T05:43:08;101177.60;;;17.68
71649;BMP180;59492;45.638;11.714;2023-03-04T05:45:34;101179.40;;;17.68
71649;BMP180;59492;45.638;11.714;2023-03-04T05:48:05;101177.60;;;17.68
71649;BMP180;59492;45.638;11.714;2023-03-04T05:50:34;101178.80;;;17.60
71649;BMP180;59492;45.638;11.714;2023-03-04T05:53:00;101182.80;;;17.60
71649;BMP180;59492;45.638;11.714;2023-03-04T05:55:26;101185.60;;;17.60
71649;BMP180;59492;45.638;11.714;2023-03-04T05:57:54;101192.60;;;17.60
71649;BMP180;59492;45.638;11.714;2023-03-04T06:00:20;101193.80;;;17.60
71649;BMP180;59492;45.638;11.714;2023-03-04T06:02:46;101191.20;;;17.60
71649;BMP180;59492;45.638;11.714;2023-03-04T06:05:13;101191.80;;;17.60
71649;BMP180;59492;45.638;11.714;2023-03-04T06:07:39;101192.40;;;17.60
71649;BMP180;59492;45.638;11.714;2023-03-04T06:10:06;101191.40;;;17.60
71649;BMP180;59492;45.638;11.714;2023-03-04T06:12:37;101188.00;;;17.64
71649;BMP180;59492;45.638;11.714;2023-03-04T06:15:03;101190.80;;;17.66
71649;BMP180;59492;45.638;11.714;2023-03-04T06:17:30;101189.40;;;17.70
71649;BMP180;59492;45.638;11.714;2023-03-04T06:19:56;101192.60;;;17.70
71649;BMP180;59492;45.638;11.714;2023-03-04T06:22:22;101194.80;;;17.70
71649;BMP180;59492;45.638;11.714;2023-03-04T06:24:50;101195.20;;;17.70
71649;BMP180;59492;45.638;11.714;2023-03-04T06:27:16;101198.40;;;17.74
71649;BMP180;59492;45.638;11.714;2023-03-04T06:29:41;101198.40;;;17.80
71649;BMP180;59492;45.638;11.714;2023-03-04T06:32:09;101202.20;;;17.80
71649;BMP180;59492;45.638;11.714;2023-03-04T06:34:35;101205.20;;;17.80
71649;BMP180;59492;45.638;11.714;2023-03-04T06:37:07;101208.20;;;17.80
71649;BMP180;59492;45.638;11.714;2023-03-04T06:39:33;101205.60;;;17.80
71649;BMP180;59492;45.638;11.714;2023-03-04T06:41:58;101206.00;;;17.88
71649;BMP180;59492;45.638;11.714;2023-03-04T06:44:24;101209.00;;;17.90
71649;BMP180;59492;45.638;11.714;2023-03-04T06:46:50;101207.80;;;17.90
71649;BMP180;59492;45.638;11.714;2023-03-04T06:49:15;101208.00;;;18.00
71649;BMP180;59492;45.638;11.714;2023-03-04T06:51:41;101210.00;;;18.00
71649;BMP180;59492;45.638;11.714;2023-03-04T06:54:07;101206.80;;;18.00
71649;BMP180;59492;45.638;11.714;2023-03-04T06:56:39;101210.20;;;18.00
71649;BMP180;59492;45.638;11.714;2023-03-04T06:59:05;101211.80;;;18.08
71649;BMP180;59492;45.638;11.714;2023-03-04T07:01:30;101209.40;;;18.10
71649;BMP180;59492;45.638;11.714;2023-03-04T07:03:57;101210.80;;;18.10
71649;BMP180;59492;45.638;11.714;2023-03-04T07:06:25;101210.80;;;18.16
71649;BMP180;59492;45.638;11.714;2023-03-04T07:08:52;101209.80;;;18.20
71649;BMP180;59492;45.638;11.714;2023-03-04T07:11:19;101210.80;;;18.20
71649;BMP180;59492;45.638;11.714;2023-03-04T07:13:47;101208.00;;;18.30
71649;BMP180;59492;45.638;11.714;2023-03-04T07:16:15;101208.00;;;18.40
71649;BMP180;59492;45.638;11.714;2023-03-04T07:18:42;101213.60;;;18.48
71649;BMP180;59492;45.638;11.714;2023-03-04T07:21:08;101208.80;;;18.60
71649;BMP180;59492;45.638;11.714;2023-03-04T07:23:35;101208.00;;;18.60
71649;BMP180;59492;45.638;11.714;2023-03-04T07:26:00;101207.00;;;18.70
71649;BMP180;59492;45.638;11.714;2023-03-04T07:28:26;101203.60;;;18.80
71649;BMP180;59492;45.638;11.714;2023-03-04T07:30:52;101204.20;;;18.90
71649;BMP180;59492;45.638;11.714;2023-03-04T07:33:18;101204.20;;;19.00
71649;BMP180;59492;45.638;11.714;2023-03-04T07:35:43;101205.80;;;19.20
71649;BMP180;59492;45.638;11.714;2023-03-04T07:38:09;101198.20;;;19.44
71649;BMP180;59492;45.638;11.714;2023-03-04T07:40:35;101197.20;;;19.68
71649;BMP180;59492;45.638;11.714;2023-03-04T07:43:01;101194.40;;;19.90
71649;BMP180;59492;45.638;11.714;2023-03-04T07:45:27;101196.80;;;20.10
71649;BMP180;59492;45.638;11.714;2023-03-04T07:47:53;101197.40;;;20.22
71649;BMP180;59492;45.638;11.714;2023-03-04T07:50:19;101202.60;;;20.30
71649;BMP180;59492;45.638;11.714;2023-03-04T07:52:47;101197.00;;;20.30
71649;BMP180;59492;45.638;11.714;2023-03-04T07:55:16;101201.60;;;20.40
71649;BMP180;59492;45.638;11.714;2023-03-04T07:57:43;101205.20;;;20.40
71649;BMP180;59492;45.638;11.714;2023-03-04T08:00:10;101203.60;;;20.50
71649;BMP180;59492;45.638;11.714;2023-03-04T08:02:39;101205.40;;;20.60
71649;BMP180;59492;45.638;11.714;2023-03-04T08:05:05;101206.40;;;20.70
71649;BMP180;59492;45.638;11.714;2023-03-04T08:07:31;101207.20;;;20.70
71649;BMP180;59492;45.638;11.714;2023-03-04T08:09:58;101205.80;;;20.80
71649;BMP180;59492;45.638;11.714;2023-03-04T08:12:23;101209.60;;;20.90
71649;BMP180;59492;45.638;11.714;2023-03-04T08:14:50;101208.40;;;20.98
71649;BMP180;59492;45.638;11.714;2023-03-04T08:17:17;101204.60;;;21.00
71649;BMP180;59492;45.638;11.714;2023-03-04T08:19:43;101209.40;;;21.10
71649;BMP180;59492;45.638;11.714;2023-03-04T08:22:10;101209.60;;;21.14
71649;BMP180;59492;45.638;11.714;2023-03-04T08:24:35;101207.20;;;21.20
71649;BMP180;59492;45.638;11.714;2023-03-04T08:27:01;101205.20;;;21.28
71649;BMP180;59492;45.638;11.714;2023-03-04T08:29:27;101208.60;;;21.30
71649;BMP180;59492;45.638;11.714;2023-03-04T08:31:53;101205.60;;;21.36
71649;BMP180;59492;45.638;11.714;2023-03-04T08:34:22;101203.20;;;21.40
71649;BMP180;59492;45.638;11.714;2023-03-04T08:36:49;101202.60;;;21.48
71649;BMP180;59492;45.638;11.714;2023-03-04T08:39:16;101200.80;;;21.50
71649;BMP180;59492;45.638;11.714;2023-03-04T08:41:44;101200.20;;;21.60
71649;BMP180;59492;45.638;11.714;2023-03-04T08:44:10;101194.40;;;21.60
71649;BMP180;59492;45.638;11.714;2023-03-04T08:46:37;101190.00;;;21.68
71649;BMP180;59492;45.638;11.714;2023-03-04T08:49:04;101192.40;;;21.70
71649;BMP180;59492;45.638;11.714;2023-03-04T08:51:31;101192.20;;;21.72
71649;BMP180;59492;45.638;11.714;2023-03-04T08:53:56;101189.80;;;21.80
71649;BMP180;59492;45.638;11.714;2023-03-04T08:56:23;101187.80;;;21.80
71649;BMP180;59492;45.638;11.714;2023-03-04T08:58:48;101182.80;;;21.90
71649;BMP180;59492;45.638;11.714;2023-03-04T09:01:14;101184.60;;;21.90
71649;BMP180;59492;45.638;11.714;2023-03-04T09:03:40;101184.60;;;21.90
71649;BMP180;59492;45.638;11.714;2023-03-04T09:06:08;101183.80;;;21.96
71649;BMP180;59492;45.638;11.714;2023-03-04T09:08:35;101183.60;;;22.00
71649;BMP180;59492;45.638;11.714;2023-03-04T09:11:01;101186.40;;;22.00
71649;BMP180;59492;45.638;11.714;2023-03-04T09:13:29;101182.80;;;22.04
71649;BMP180;59492;45.638;11.714;2023-03-04T09:15:55;101180.60;;;22.10
71649;BMP180;59492;45.638;11.714;2023-03-04T09:18:22;101181.00;;;22.10
71649;BMP180;59492;45.638;11.714;2023-03-04T09:20:48;101178.20;;;22.10
71649;BMP180;59492;45.638;11.714;2023-03-04T09:23:15;101177.60;;;22.10
71649;BMP180;59492;45.638;11.714;2023-03-04T09:25:41;101176.00;;;22.10
71649;BMP180;59492;45.638;11.714;2023-03-04T09:28:07;101174.60;;;22.16
71649;BMP180;59492;45.638;11.714;2023-03-04T09:30:33;101171.40;;;22.20
71649;BMP180;59492;45.638;11.714;2023-03-04T09:32:59;101172.60;;;22.20
71649;BMP180;59492;45.638;11.714;2023-03-04T09:35:26;101176.60;;;22.20
71649;BMP180;59492;45.638;11.714;2023-03-04T09:37:51;101168.60;;;22.20
71649;BMP180;59492;45.638;11.714;2023-03-04T09:40:23;101167.40;;;22.18
71649;BMP180;59492;45.638;11.714;2023-03-04T09:42:54;101167.40;;;22.10
71649;BMP180;59492;45.638;11.714;2023-03-04T09:45:26;101164.40;;;22.10
71649;BMP180;59492;45.638;11.714;2023-03-04T09:47:54;101161.80;;;22.10
71649;BMP180;59492;45.638;11.714;2023-03-04T09:50:21;101165.60;;;22.00
71649;BMP180;59492;45.638;11.714;2023-03-04T09:55:39;101163.60;;;22.00
71649;BMP180;59492;45.638;11.714;2023-03-04T10:01:20;101165.00;;;22.00
71649;BMP180;59492;45.638;11.714;2023-03-04T10:03:55;101166.60;;;22.00
71649;BMP180;59492;45.638;11.714;2023-03-04T10:06:22;101161.00;;;21.96
71649;BMP180;59492;45.638;11.714;2023-03-04T10:09:10;101161.00;;;21.90
71649;BMP180;59492;45.638;11.714;2023-03-04T10:11:45;101157.20;;;21.90
71649;BMP180;59492;45.638;11.714;2023-03-04T10:21:42;101146.80;;;21.70
71649;BMP180;59492;45.638;11.714;2023-03-04T10:24:14;101143.20;;;21.66
71649;BMP180;59492;45.638;11.714;2023-03-04T10:26:43;101145.20;;;21.60
71649;BMP180;59492;45.638;11.714;2023-03-04T10:29:13;101136.40;;;21.50
71649;BMP180;59492;45.638;11.714;2023-03-04T10:31:39;101140.20;;;21.50
71649;BMP180;59492;45.638;11.714;2023-03-04T10:34:08;101134.20;;;21.48
71649;BMP180;59492;45.638;11.714;2023-03-04T10:36:55;101134.20;;;21.30
71649;BMP180;59492;45.638;11.714;2023-03-04T10:39:23;101130.60;;;21.30
71649;BMP180;59492;45.638;11.714;2023-03-04T10:41:57;101129.60;;;21.28
71649;BMP180;59492;45.638;11.714;2023-03-04T10:44:22;101121.80;;;21.20
71649;BMP180;59492;45.638;11.714;2023-03-04T10:46:48;101121.20;;;21.10
71649;BMP180;59492;45.638;11.714;2023-03-04T10:49:15;101114.80;;;21.00
71649;BMP180;59492;45.638;11.714;2023-03-04T10:51:45;101110.80;;;21.00
71649;BMP180;59492;45.638;11.714;2023-03-04T10:54:27;101108.00;;;20.90
71649;BMP180;59492;45.638;11.714;2023-03-04T10:56:55;101104.60;;;20.90
71649;BMP180;59492;45.638;11.714;2023-03-04T11:04:52;101100.00;;;20.66
71649;BMP180;59492;45.638;11.714;2023-03-04T11:07:19;101093.40;;;20.60
71649;BMP180;59492;45.638;11.714;2023-03-04T11:09:45;101087.60;;;20.50
71649;BMP180;59492;45.638;11.714;2023-03-04T11:12:11;101085.40;;;20.50
71649;BMP180;59492;45.638;11.714;2023-03-04T11:14:50;101083.00;;;20.40
71649;BMP180;59492;45.638;11.714;2023-03-04T11:17:18;101082.00;;;20.42
71649;BMP180;59492;45.638;11.714;2023-03-04T11:19:44;101075.00;;;20.40
71649;BMP180;59492;45.638;11.714;2023-03-04T11:22:14;101070.60;;;20.40
71649;BMP180;59492;45.638;11.714;2023-03-04T11:24:41;101069.00;;;20.32
71649;BMP180;59492;45.638;11.714;2023-03-04T11:27:10;101065.20;;;20.30
71649;BMP180;59492;45.638;11.714;2023-03-04T11:32:11;101056.20;;;20.20
71649;BMP180;59492;45.638;11.714;2023-03-04T11:39:56;101048.80;;;20.10
71649;BMP180;59492;45.638;11.714;2023-03-04T11:42:25;101048.60;;;20.00
71649;BMP180;59492;45.638;11.714;2023-03-04T11:44:54;101041.00;;;20.00
71649;BMP180;59492;45.638;11.714;2023-03-04T11:47:38;101038.00;;;20.00
71649;BMP180;59492;45.638;11.714;2023-03-04T11:50:28;101030.40;;;19.92
71649;BMP180;59492;45.638;11.714;2023-03-04T12:14:20;100996.60;;;19.60
71649;BMP180;59492;45.638;11.714;2023-03-04T12:19:38;100981.60;;;19.50
71649;BMP180;59492;45.638;11.714;2023-03-04T12:30:37;100961.00;;;19.20
71649;BMP180;59492;45.638;11.714;2023-03-04T12:33:16;100958.00;;;19.12
71649;BMP180;59492;45.638;11.714;2023-03-04T12:41:03;100948.80;;;19.00
71649;BMP180;59492;45.638;11.714;2023-03-04T12:46:17;100941.00;;;18.98
71649;BMP180;59492;45.638;11.714;2023-03-04T12:51:28;100931.00;;;18.90
71649;BMP180;59492;45.638;11.714;2023-03-04T12:54:06;100923.60;;;18.84
71649;BMP180;59492;45.638;11.714;2023-03-04T12:56:49;100919.00;;;18.88
71649;BMP180;59492;45.638;11.714;2023-03-04T12:59:16;100919.80;;;18.80
71649;BMP180;59492;45.638;11.714;2023-03-04T13:04:18;100916.80;;;18.80
71649;BMP180;59492;45.638;11.714;2023-03-04T13:09:29;100912.80;;;18.70
71649;BMP180;59492;45.638;11.714;2023-03-04T13:12:16;100908.80;;;18.70
71649;BMP180;59492;45.638;11.714;2023-03-04T13:17:42;100899.20;;;18.62
71649;BMP180;59492;45.638;11.714;2023-03-04T13:20:22;100902.60;;;18.60
71649;BMP180;59492;45.638;11.714;2023-03-04T13:25:29;100885.80;;;18.50
71649;BMP180;59492;45.638;11.714;2023-03-04T13:43:42;100873.80;;;18.30
71649;BMP180;59492;45.638;11.714;2023-03-04T13:46:50;100867.60;;;18.30
71649;BMP180;59492;45.638;11.714;2023-03-04T13:51:30;100864.40;;;18.30
71649;BMP180;59492;45.638;11.714;2023-03-04T13:56:35;100858.00;;;18.30
71649;BMP180;59492;45.638;11.714;2023-03-04T13:59:13;100858.40;;;18.24
71649;BMP180;59492;45.638;11.714;2023-03-04T14:06:43;100849.60;;;18.20
71649;BMP180;59492;45.638;11.714;2023-03-04T14:09:12;100846.00;;;18.20
71649;BMP180;59492;45.638;11.714;2023-03-04T14:11:39;100836.60;;;18.26
71649;BMP180;59492;45.638;11.714;2023-03-04T14:14:12;100829.40;;;18.30
71649;BMP180;59492;45.638;11.714;2023-03-04T14:16:39;100829.20;;;18.30
71649;BMP180;59492;45.638;11.714;2023-03-04T14:19:05;100825.60;;;18.30
71649;BMP180;59492;45.638;11.714;2023-03-04T14:21:32;100829.00;;;18.30
71649;BMP180;59492;45.638;11.714;2023-03-04T14:24:00;100824.40;;;18.34
71649;BMP180;59492;45.638;11.714;2023-03-04T14:26:25;100816.20;;;18.40
71649;BMP180;59492;45.638;11.714;2023-03-04T14:28:55;100817.00;;;18.40
71649;BMP180;59492;45.638;11.714;2023-03-04T14:31:24;100812.80;;;18.40
71649;BMP180;59492;45.638;11.714;2023-03-04T14:33:55;100809.00;;;18.40
71649;BMP180;59492;45.638;11.714;2023-03-04T14:36:25;100808.00;;;18.40
71649;BMP180;59492;45.638;11.714;2023-03-04T14:38:52;100808.60;;;18.40
71649;BMP180;59492;45.638;11.714;2023-03-04T14:41:21;100803.80;;;18.40
71649;BMP180;59492;45.638;11.714;2023-03-04T14:46:18;100801.80;;;18.40
71649;BMP180;59492;45.638;11.714;2023-03-04T14:48:49;100799.40;;;18.42
71649;BMP180;59492;45.638;11.714;2023-03-04T14:59:45;100787.20;;;18.40
71649;BMP180;59492;45.638;11.714;2023-03-04T15:02:24;100783.80;;;18.44
71649;BMP180;59492;45.638;11.714;2023-03-04T15:04:55;100779.60;;;18.46
71649;BMP180;59492;45.638;11.714;2023-03-04T15:07:25;100774.40;;;18.40
71649;BMP180;59492;45.638;11.714;2023-03-04T15:09:53;100770.80;;;18.42
71649;BMP180;59492;45.638;11.714;2023-03-04T15:12:22;100769.60;;;18.40
71649;BMP180;59492;45.638;11.714;2023-03-04T15:14:55;100770.20;;;18.40
71649;BMP180;59492;45.638;11.714;2023-03-04T15:17:38;100766.20;;;18.40
71649;BMP180;59492;45.638;11.714;2023-03-04T15:25:05;100753.20;;;18.40
71649;BMP180;59492;45.638;11.714;2023-03-04T15:27:30;100755.40;;;18.40
71649;BMP180;59492;45.638;11.714;2023-03-04T15:29:57;100757.00;;;18.40
71649;BMP180;59492;45.638;11.714;2023-03-04T15:32:25;100755.20;;;18.40
71649;BMP180;59492;45.638;11.714;2023-03-04T15:34:51;100752.60;;;18.40
71649;BMP180;59492;45.638;11.714;2023-03-04T15:37:18;100756.20;;;18.40
71649;BMP180;59492;45.638;11.714;2023-03-04T15:39:44;100753.00;;;18.40
71649;BMP180;59492;45.638;11.714;2023-03-04T15:42:10;100753.80;;;18.40
71649;BMP180;59492;45.638;11.714;2023-03-04T15:44:37;100751.20;;;18.40
71649;BMP180;59492;45.638;11.714;2023-03-04T15:47:03;100749.80;;;18.38
71649;BMP180;59492;45.638;11.714;2023-03-04T15:49:29;100751.40;;;18.30
71649;BMP180;59492;45.638;11.714;2023-03-04T15:51:55;100750.00;;;18.30
71649;BMP180;59492;45.638;11.714;2023-03-04T15:54:21;100749.40;;;18.30
71649;BMP180;59492;45.638;11.714;2023-03-04T15:56:48;100748.00;;;18.30